createdAt,value
2022-12-19T00:01:03.118Z,-3.50
2022-12-19T00:03:29.987Z,-3.50
2022-12-19T00:05:56.854Z,-3.50
2022-12-19T00:08:24.938Z,-3.50
2022-12-19T00:10:56.302Z,-3.50
2022-12-19T00:13:23.478Z,-3.50
2022-12-19T00:15:50.263Z,-3.50
2022-12-19T00:18:17.046Z,-3.50
2022-12-19T00:20:43.841Z,-3.50
2022-12-19T00:23:10.672Z,-3.50
2022-12-19T00:25:38.808Z,-3.50
2022-12-19T00:28:06.938Z,-3.50
2022-12-19T00:30:33.718Z,-3.50
2022-12-19T00:33:00.450Z,-3.50
2022-12-19T00:35:27.212Z,-3.50
2022-12-19T00:37:53.984Z,-3.50
2022-12-19T00:40:20.749Z,-3.50
2022-12-19T00:42:53.690Z,-3.50
2022-12-19T00:45:20.870Z,-3.50
2022-12-19T00:47:47.611Z,-3.50
2022-12-19T00:50:14.445Z,-3.50
2022-12-19T00:52:41.189Z,-3.50
2022-12-19T00:55:16.434Z,-3.50
2022-12-19T00:57:46.553Z,-3.50
2022-12-19T01:00:16.223Z,-3.50
2022-12-19T01:02:43.134Z,-3.50
2022-12-19T01:05:10.043Z,-3.60
2022-12-19T01:07:36.792Z,-3.50
2022-12-19T01:10:04.680Z,-3.50
2022-12-19T01:12:31.421Z,-3.60
2022-12-19T01:15:03.772Z,-3.50
2022-12-19T01:17:33.492Z,-3.50
2022-12-19T01:20:02.209Z,-3.60
2022-12-19T01:22:28.926Z,-3.60
2022-12-19T01:24:55.683Z,-3.60
2022-12-19T01:27:22.562Z,-3.60
2022-12-19T01:29:52.786Z,-3.60
2022-12-19T01:32:20.237Z,-3.50
2022-12-19T01:34:48.348Z,-3.60
2022-12-19T01:37:16.548Z,-3.60
2022-12-19T01:39:43.436Z,-3.60
2022-12-19T01:42:14.958Z,-3.60
2022-12-19T01:45:02.377Z,-3.60
2022-12-19T01:47:29.457Z,-3.60
2022-12-19T01:49:57.613Z,-3.60
2022-12-19T01:52:24.714Z,-3.60
2022-12-19T01:54:51.581Z,-3.60
2022-12-19T01:57:19.730Z,-3.60
2022-12-19T01:59:49.939Z,-3.70
2022-12-19T02:02:21.809Z,-3.60
2022-12-19T02:04:48.666Z,-3.60
2022-12-19T02:07:18.658Z,-3.60
2022-12-19T02:09:47.268Z,-3.60
2022-12-19T02:12:24.203Z,-3.60
2022-12-19T02:14:52.027Z,-3.60
2022-12-19T02:17:29.837Z,-3.60
2022-12-19T02:20:56.997Z,-3.50
2022-12-19T02:24:02.866Z,-3.50
2022-12-19T02:27:06.054Z,-3.60
2022-12-19T02:29:51.024Z,-3.50
2022-12-19T02:32:26.872Z,-3.50
2022-12-19T02:34:59.669Z,-3.50
2022-12-19T02:37:30.207Z,-3.60
2022-12-19T02:40:04.232Z,-3.60
2022-12-19T02:42:36.098Z,-3.60
2022-12-19T02:45:05.545Z,-3.50
2022-12-19T02:47:35.127Z,-3.60
2022-12-19T02:50:02.517Z,-3.60
2022-12-19T02:52:45.748Z,-3.60
2022-12-19T02:55:15.688Z,-3.60
2022-12-19T02:58:01.486Z,-3.60
2022-12-19T03:00:29.091Z,-3.50
2022-12-19T03:03:09.212Z,-3.60
2022-12-19T03:05:43.088Z,-3.60
2022-12-19T03:08:13.824Z,-3.60
2022-12-19T03:10:44.300Z,-3.50
2022-12-19T03:13:14.403Z,-3.50
2022-12-19T03:15:42.298Z,-3.60
2022-12-19T03:18:11.216Z,-3.50
2022-12-19T03:20:44.526Z,-3.50
2022-12-19T03:23:12.038Z,-3.50
2022-12-19T03:25:41.543Z,-3.50
2022-12-19T03:28:13.470Z,-3.50
2022-12-19T03:30:42.657Z,-3.50
2022-12-19T03:33:13.356Z,-3.50
2022-12-19T03:35:41.749Z,-3.50
2022-12-19T03:38:10.881Z,-3.50
2022-12-19T03:40:39.729Z,-3.50
2022-12-19T03:43:08.633Z,-3.50
2022-12-19T03:45:44.548Z,-3.50
2022-12-19T03:48:16.205Z,-3.50
2022-12-19T03:50:48.821Z,-3.50
2022-12-19T03:53:26.327Z,-3.50
2022-12-19T03:55:59.102Z,-3.50
2022-12-19T03:58:29.844Z,-3.50
2022-12-19T04:00:58.052Z,-3.50
2022-12-19T04:03:28.162Z,-3.50
2022-12-19T04:05:57.208Z,-3.50
2022-12-19T04:08:24.971Z,-3.50
2022-12-19T04:10:58.470Z,-3.40
2022-12-19T04:13:30.595Z,-3.40
2022-12-19T04:16:04.941Z,-3.40
2022-12-19T04:18:33.737Z,-3.30
2022-12-19T04:21:05.567Z,-3.40
2022-12-19T04:23:35.654Z,-3.40
2022-12-19T04:26:04.798Z,-3.40
2022-12-19T04:28:36.122Z,-3.40
2022-12-19T04:31:04.434Z,-3.30
2022-12-19T04:33:31.198Z,-3.30
2022-12-19T04:36:00.120Z,-3.40
2022-12-19T04:38:27.316Z,-3.40
2022-12-19T04:40:54.135Z,-3.40
2022-12-19T04:43:20.899Z,-3.40
2022-12-19T04:45:49.723Z,-3.30
2022-12-19T04:48:19.509Z,-3.30
2022-12-19T04:50:46.292Z,-3.30
2022-12-19T04:53:14.450Z,-3.30
2022-12-19T04:55:41.267Z,-3.30
2022-12-19T04:58:08.083Z,-3.40
2022-12-19T05:00:35.231Z,-3.40
2022-12-19T05:03:02.141Z,-3.40
2022-12-19T05:05:29.050Z,-3.40
2022-12-19T05:07:55.829Z,-3.40
2022-12-19T05:10:23.930Z,-3.40
2022-12-19T05:12:50.725Z,-3.40
2022-12-19T05:15:17.625Z,-3.40
2022-12-19T05:17:44.436Z,-3.40
2022-12-19T05:20:11.739Z,-3.40
2022-12-19T05:22:38.481Z,-3.40
2022-12-19T05:25:06.431Z,-3.40
2022-12-19T05:27:34.721Z,-3.40
2022-12-19T05:30:01.473Z,-3.40
2022-12-19T05:32:30.252Z,-3.40
2022-12-19T05:34:57.052Z,-3.30
2022-12-19T05:37:23.821Z,-3.30
2022-12-19T05:39:50.642Z,-3.30
2022-12-19T05:42:17.407Z,-3.30
2022-12-19T05:44:45.526Z,-3.30
2022-12-19T05:47:12.487Z,-3.30
2022-12-19T05:49:39.223Z,-3.30
2022-12-19T05:52:05.949Z,-3.30
2022-12-19T05:54:32.913Z,-3.30
2022-12-19T05:56:59.661Z,-3.30
2022-12-19T05:59:26.599Z,-3.30
2022-12-19T06:01:55.263Z,-3.30
2022-12-19T06:04:22.083Z,-3.30
2022-12-19T06:06:48.839Z,-3.30
2022-12-19T06:09:15.736Z,-3.30
2022-12-19T06:11:42.484Z,-3.30
2022-12-19T06:14:09.224Z,-3.30
2022-12-19T06:16:36.003Z,-3.30
2022-12-19T06:19:04.221Z,-3.30
2022-12-19T06:21:31.076Z,-3.30
2022-12-19T06:23:57.957Z,-3.30
2022-12-19T06:26:24.945Z,-3.30
2022-12-19T06:28:52.814Z,-3.20
2022-12-19T06:31:20.660Z,-3.30
2022-12-19T06:33:47.436Z,-3.20
2022-12-19T06:36:18.559Z,-3.20
2022-12-19T06:38:45.304Z,-3.20
2022-12-19T06:41:12.546Z,-3.30
2022-12-19T06:43:39.476Z,-3.20
2022-12-19T06:46:06.460Z,-3.20
2022-12-19T06:48:33.545Z,-3.20
2022-12-19T06:51:00.355Z,-3.30
2022-12-19T06:53:28.724Z,-3.20
2022-12-19T06:55:57.831Z,-3.20
2022-12-19T06:58:25.124Z,-3.20
2022-12-19T07:00:52.217Z,-3.20
2022-12-19T07:03:24.943Z,-3.20
2022-12-19T07:05:52.449Z,-3.20
2022-12-19T07:08:19.219Z,-3.20
2022-12-19T07:10:47.375Z,-3.20
2022-12-19T07:13:14.471Z,-3.20
2022-12-19T07:15:41.660Z,-3.20
2022-12-19T07:18:09.997Z,-3.20
2022-12-19T07:20:43.332Z,-3.10
2022-12-19T07:23:16.766Z,-3.10
2022-12-19T07:25:43.620Z,-3.10
2022-12-19T07:28:11.803Z,-3.10
2022-12-19T07:30:38.569Z,-3.20
2022-12-19T07:33:05.336Z,-3.10
2022-12-19T07:35:32.066Z,-3.10
2022-12-19T07:38:01.889Z,-3.10
2022-12-19T07:40:28.938Z,-3.10
2022-12-19T07:42:59.146Z,-3.10
2022-12-19T07:45:27.418Z,-3.10
2022-12-19T07:47:54.245Z,-3.10
2022-12-19T07:50:21.034Z,-3.00
2022-12-19T07:52:47.786Z,-3.00
2022-12-19T07:55:14.754Z,-3.10
2022-12-19T07:57:41.816Z,-3.00
2022-12-19T08:00:09.889Z,-3.00
2022-12-19T08:02:38.083Z,-3.00
2022-12-19T08:05:05.957Z,-3.00
2022-12-19T08:07:33.039Z,-3.00
2022-12-19T08:09:59.792Z,-3.00
2022-12-19T08:12:26.618Z,-2.90
2022-12-19T08:14:57.164Z,-2.90
2022-12-19T08:17:24.312Z,-2.90
2022-12-19T08:19:52.576Z,-2.90
2022-12-19T08:22:19.389Z,-2.90
2022-12-19T08:24:46.345Z,-2.90
2022-12-19T08:27:13.154Z,-2.90
2022-12-19T08:29:39.878Z,-2.80
2022-12-19T08:32:06.622Z,-2.90
2022-12-19T08:34:33.475Z,-2.80
2022-12-19T08:37:01.620Z,-2.80
2022-12-19T08:39:28.351Z,-2.80
2022-12-19T08:41:55.076Z,-2.80
2022-12-19T08:44:22.012Z,-2.80
2022-12-19T08:46:50.478Z,-2.80
2022-12-19T08:49:17.694Z,-2.80
2022-12-19T08:51:44.560Z,-2.80
2022-12-19T08:54:12.723Z,-2.80
2022-12-19T08:56:45.997Z,-2.80
2022-12-19T08:59:13.907Z,-2.80
2022-12-19T09:01:43.051Z,-2.70
2022-12-19T09:05:42.165Z,-2.70
2022-12-19T09:06:56.728Z,-2.70
2022-12-19T09:09:24.903Z,-2.70
2022-12-19T09:11:51.748Z,-2.70
2022-12-19T09:14:20.931Z,-2.70
2022-12-19T09:16:48.630Z,-2.70
2022-12-19T09:19:15.545Z,-2.70
2022-12-19T09:21:42.870Z,-2.70
2022-12-19T09:24:10.615Z,-2.70
2022-12-19T09:26:38.751Z,-2.60
2022-12-19T09:29:10.962Z,-2.60
2022-12-19T09:31:47.117Z,-2.60
2022-12-19T09:34:13.949Z,-2.60
2022-12-19T09:36:40.734Z,-2.70
2022-12-19T09:39:07.530Z,-2.60
2022-12-19T09:41:54.906Z,-2.60
2022-12-19T09:44:36.624Z,-2.60
2022-12-19T09:47:10.421Z,-2.60
2022-12-19T09:49:39.791Z,-2.60
2022-12-19T09:52:15.244Z,-2.60
2022-12-19T09:54:46.151Z,-2.50
2022-12-19T09:57:17.957Z,-2.50
2022-12-19T09:59:50.266Z,-2.50
2022-12-19T10:02:29.198Z,-2.50
2022-12-19T10:05:05.981Z,-2.50
2022-12-19T10:08:07.681Z,-2.50
2022-12-19T10:12:39.116Z,-2.50
2022-12-19T10:13:47.619Z,-2.50
2022-12-19T10:16:23.889Z,-2.40
2022-12-19T10:18:56.873Z,-2.40
2022-12-19T10:22:16.895Z,-2.40
2022-12-19T10:24:44.103Z,-2.40
2022-12-19T10:27:31.161Z,-2.40
2022-12-19T10:30:10.980Z,-2.40
2022-12-19T10:32:46.804Z,-2.40
2022-12-19T10:35:15.975Z,-2.40
2022-12-19T10:37:49.858Z,-2.40
2022-12-19T10:40:28.307Z,-2.40
2022-12-19T10:42:59.579Z,-2.30
2022-12-19T10:45:41.671Z,-2.30
2022-12-19T10:48:15.334Z,-2.30
2022-12-19T10:50:42.143Z,-2.30
2022-12-19T10:53:10.742Z,-2.30
2022-12-19T10:55:45.980Z,-2.30
2022-12-19T10:58:22.897Z,-2.30
2022-12-19T11:01:13.586Z,-2.30
2022-12-19T11:03:42.602Z,-2.30
2022-12-19T11:06:39.910Z,-2.30
2022-12-19T11:09:21.465Z,-2.30
2022-12-19T11:14:21.451Z,-2.30
2022-12-19T11:20:45.238Z,-2.20
2022-12-19T11:23:21.208Z,-2.20
2022-12-19T11:29:32.670Z,-2.20
2022-12-19T11:29:33.480Z,-2.20
2022-12-19T11:29:36.671Z,-2.20
2022-12-19T11:30:48.178Z,-2.20
2022-12-19T11:34:27.502Z,-2.10
2022-12-19T11:36:59.916Z,-2.20
2022-12-19T11:39:39.593Z,-2.10
2022-12-19T11:42:11.185Z,-2.10
2022-12-19T11:44:44.209Z,-2.10
2022-12-19T11:47:19.124Z,-2.10
2022-12-19T11:49:51.592Z,-2.00
2022-12-19T11:53:02.279Z,-2.00
2022-12-19T11:55:18.126Z,-2.00
2022-12-19T11:57:46.535Z,-2.00
2022-12-19T12:00:16.144Z,-2.00
2022-12-19T12:03:10.943Z,-2.00
2022-12-19T12:05:44.443Z,-1.90
2022-12-19T12:10:16.137Z,-1.90
2022-12-19T12:15:50.529Z,-1.90
2022-12-19T12:22:48.210Z,-1.90
2022-12-19T12:31:07.544Z,-1.90
2022-12-19T12:31:10.063Z,-1.90
2022-12-19T12:31:16.639Z,-1.90
2022-12-19T12:31:39.473Z,-1.90
2022-12-19T12:31:46.435Z,-1.90
2022-12-19T12:35:33.434Z,-1.90
2022-12-19T12:38:43.852Z,-1.90
2022-12-19T12:41:21.256Z,-1.90
2022-12-19T12:44:01.726Z,-1.80
2022-12-19T12:46:34.400Z,-1.90
2022-12-19T12:49:03.863Z,-1.80
2022-12-19T12:51:32.716Z,-1.80
2022-12-19T12:54:04.594Z,-1.80
2022-12-19T12:56:32.417Z,-1.80
2022-12-19T12:59:19.573Z,-1.80
2022-12-19T13:01:50.030Z,-1.80
2022-12-19T13:04:24.501Z,-1.80
2022-12-19T13:07:18.705Z,-1.80
2022-12-19T13:09:53.476Z,-1.80
2022-12-19T13:12:25.938Z,-1.80
2022-12-19T13:14:52.805Z,-1.80
2022-12-19T13:17:25.198Z,-1.70
2022-12-19T13:19:57.441Z,-1.80
2022-12-19T13:22:41.528Z,-1.70
2022-12-19T13:25:47.189Z,-1.70
2022-12-19T13:28:36.077Z,-1.70
2022-12-19T13:31:20.811Z,-1.70
2022-12-19T13:34:15.971Z,-1.70
2022-12-19T13:39:49.599Z,-1.70
2022-12-19T13:40:07.520Z,-1.70
2022-12-19T13:42:35.619Z,-1.70
2022-12-19T13:45:08.561Z,-1.70
2022-12-19T13:47:37.688Z,-1.70
2022-12-19T13:50:14.996Z,-1.70
2022-12-19T13:52:41.736Z,-1.70
2022-12-19T13:55:13.652Z,-1.70
2022-12-19T13:57:41.875Z,-1.70
2022-12-19T14:00:16.982Z,-1.70
2022-12-19T14:02:48.357Z,-1.70
2022-12-19T14:05:32.216Z,-1.70
2022-12-19T14:08:15.818Z,-1.60
2022-12-19T14:11:40.903Z,-1.70
2022-12-19T14:13:58.917Z,-1.70
2022-12-19T14:16:35.004Z,-1.70
2022-12-19T14:19:22.319Z,-1.60
2022-12-19T14:22:10.512Z,-1.60
2022-12-19T14:24:36.062Z,-1.60
2022-12-19T14:28:26.979Z,-1.60
2022-12-19T14:30:27.494Z,-1.70
2022-12-19T14:33:44.636Z,-1.60
2022-12-19T14:36:11.292Z,-1.60
2022-12-19T14:39:27.262Z,-1.60
2022-12-19T14:41:19.755Z,-1.60
2022-12-19T14:44:00.200Z,-1.60
2022-12-19T14:54:20.629Z,-1.60
2022-12-19T14:54:20.629Z,-1.60
2022-12-19T14:54:46.758Z,-1.60
2022-12-19T14:56:19.577Z,-1.60
2022-12-19T14:58:53.360Z,-1.60
2022-12-19T15:01:22.909Z,-1.60
2022-12-19T15:04:49.433Z,-1.60
2022-12-19T15:07:07.429Z,-1.60
2022-12-19T15:11:02.895Z,-1.60
2022-12-19T15:14:47.461Z,-1.60
2022-12-19T15:15:19.646Z,-1.60
2022-12-19T15:17:48.093Z,-1.60
2022-12-19T15:20:16.934Z,-1.60
2022-12-19T15:23:22.604Z,-1.60
2022-12-19T15:26:07.290Z,-1.60
2022-12-19T15:28:38.979Z,-1.60
2022-12-19T15:31:12.180Z,-1.60
2022-12-19T15:33:59.815Z,-1.60
2022-12-19T15:36:27.228Z,-1.60
2022-12-19T15:38:53.989Z,-1.60
2022-12-19T15:41:22.314Z,-1.60
2022-12-19T15:44:06.234Z,-1.60
2022-12-19T15:46:33.848Z,-1.60
2022-12-19T15:49:00.785Z,-1.50
2022-12-19T15:51:28.891Z,-1.60
2022-12-19T15:54:08.899Z,-1.60
2022-12-19T15:56:44.068Z,-1.60
2022-12-19T15:59:23.223Z,-1.50
2022-12-19T16:01:51.273Z,-1.60
2022-12-19T16:04:18.626Z,-1.60
2022-12-19T16:06:46.932Z,-1.60
2022-12-19T16:09:20.534Z,-1.50
2022-12-19T16:11:47.727Z,-1.60
2022-12-19T16:14:14.727Z,-1.60
2022-12-19T16:16:41.665Z,-1.50
2022-12-19T16:19:23.839Z,-1.50
2022-12-19T16:21:52.582Z,-1.50
2022-12-19T16:24:20.019Z,-1.50
2022-12-19T16:26:53.076Z,-1.50
2022-12-19T16:29:22.378Z,-1.50
2022-12-19T16:31:49.579Z,-1.50
2022-12-19T16:34:18.141Z,-1.50
2022-12-19T16:36:45.348Z,-1.50
2022-12-19T16:39:13.472Z,-1.50
2022-12-19T16:41:42.642Z,-1.50
2022-12-19T16:44:19.321Z,-1.50
2022-12-19T16:46:50.582Z,-1.50
2022-12-19T16:49:20.718Z,-1.50
2022-12-19T16:51:47.476Z,-1.50
2022-12-19T16:54:16.976Z,-1.50
2022-12-19T16:56:46.973Z,-1.50
2022-12-19T16:59:17.488Z,-1.50
2022-12-19T17:01:46.327Z,-1.50
2022-12-19T17:04:15.125Z,-1.50
2022-12-19T17:06:42.564Z,-1.50
2022-12-19T17:09:13.379Z,-1.50
2022-12-19T17:11:43.630Z,-1.50
2022-12-19T17:14:15.421Z,-1.50
2022-12-19T17:16:42.585Z,-1.50
2022-12-19T17:19:17.011Z,-1.50
2022-12-19T17:21:43.800Z,-1.50
2022-12-19T17:24:13.515Z,-1.50
2022-12-19T17:26:42.251Z,-1.50
2022-12-19T17:29:09.352Z,-1.50
2022-12-19T17:31:38.868Z,-1.50
2022-12-19T17:34:07.868Z,-1.50
2022-12-19T17:36:37.603Z,-1.40
2022-12-19T17:39:17.410Z,-1.40
2022-12-19T17:41:45.591Z,-1.40
2022-12-19T17:44:12.374Z,-1.40
2022-12-19T17:46:39.335Z,-1.40
2022-12-19T17:49:06.396Z,-1.40
2022-12-19T17:51:33.186Z,-1.50
2022-12-19T17:53:59.920Z,-1.40
2022-12-19T17:56:26.710Z,-1.40
2022-12-19T17:58:54.803Z,-1.40
2022-12-19T18:01:27.458Z,-1.40
2022-12-19T18:03:54.938Z,-1.40
2022-12-19T18:06:22.054Z,-1.40
2022-12-19T18:08:48.835Z,-1.40
2022-12-19T18:11:19.536Z,-1.40
2022-12-19T18:13:46.608Z,-1.40
2022-12-19T18:16:17.212Z,-1.40
2022-12-19T18:18:44.546Z,-1.40
2022-12-19T18:21:14.561Z,-1.40
2022-12-19T18:23:42.122Z,-1.40
2022-12-19T18:26:09.898Z,-1.40
2022-12-19T18:28:36.795Z,-1.40
2022-12-19T18:31:11.022Z,-1.40
2022-12-19T18:33:40.879Z,-1.40
2022-12-19T18:36:14.952Z,-1.40
2022-12-19T18:38:41.704Z,-1.40
2022-12-19T18:41:10.372Z,-1.40
2022-12-19T18:43:37.283Z,-1.40
2022-12-19T18:46:04.357Z,-1.30
2022-12-19T18:48:32.911Z,-1.30
2022-12-19T18:51:01.808Z,-1.30
2022-12-19T18:53:34.425Z,-1.30
2022-12-19T18:56:03.435Z,-1.30
2022-12-19T18:58:30.192Z,-1.30
2022-12-19T19:00:59.640Z,-1.30
2022-12-19T19:03:29.719Z,-1.30
2022-12-19T19:05:56.707Z,-1.30
2022-12-19T19:08:26.986Z,-1.30
2022-12-19T19:10:55.350Z,-1.30
2022-12-19T19:13:24.197Z,-1.30
2022-12-19T19:15:52.944Z,-1.30
2022-12-19T19:18:22.244Z,-1.30
2022-12-19T19:20:57.176Z,-1.30
2022-12-19T19:23:33.150Z,-1.30
2022-12-19T19:26:00.021Z,-1.30
2022-12-19T19:28:26.761Z,-1.30
2022-12-19T19:30:54.334Z,-1.30
2022-12-19T19:33:25.220Z,-1.30
2022-12-19T19:35:59.069Z,-1.30
2022-12-19T19:38:25.845Z,-1.30
2022-12-19T19:40:54.079Z,-1.30
2022-12-19T19:43:20.907Z,-1.30
2022-12-19T19:45:47.692Z,-1.30
2022-12-19T19:48:14.491Z,-1.30
2022-12-19T19:50:41.235Z,-1.30
2022-12-19T19:53:08.227Z,-1.30
2022-12-19T19:55:35.040Z,-1.30
2022-12-19T19:58:03.129Z,-1.30
2022-12-19T20:00:29.960Z,-1.30
2022-12-19T20:02:56.915Z,-1.30
2022-12-19T20:05:23.778Z,-1.30
2022-12-19T20:07:50.516Z,-1.30
2022-12-19T20:10:17.279Z,-1.30
2022-12-19T20:12:44.170Z,-1.40
2022-12-19T20:15:12.517Z,-1.30
2022-12-19T20:17:39.260Z,-1.40
2022-12-19T20:20:07.439Z,-1.40
2022-12-19T20:22:34.201Z,-1.30
2022-12-19T20:25:00.938Z,-1.30
2022-12-19T20:27:27.780Z,-1.30
2022-12-19T20:29:54.642Z,-1.30
2022-12-19T20:32:22.750Z,-1.40
2022-12-19T20:34:52.161Z,-1.30
2022-12-19T20:37:19.033Z,-1.30
2022-12-19T20:39:45.804Z,-1.40
2022-12-19T20:42:12.616Z,-1.30
2022-12-19T20:44:39.452Z,-1.30
2022-12-19T20:47:06.350Z,-1.30
2022-12-19T20:49:34.743Z,-1.30
2022-12-19T20:52:01.581Z,-1.30
2022-12-19T20:54:28.355Z,-1.30
2022-12-19T20:56:55.198Z,-1.30
2022-12-19T20:59:22.049Z,-1.30
2022-12-19T21:01:48.908Z,-1.30
2022-12-19T21:04:16.177Z,-1.30
2022-12-19T21:06:44.501Z,-1.30
2022-12-19T21:09:11.312Z,-1.30
2022-12-19T21:11:38.108Z,-1.30
2022-12-19T21:14:04.907Z,-1.30
2022-12-19T21:16:31.721Z,-1.30
2022-12-19T21:18:58.534Z,-1.30
2022-12-19T21:21:27.032Z,-1.30
2022-12-19T21:23:55.626Z,-1.30
2022-12-19T21:26:23.985Z,-1.30
2022-12-19T21:28:51.259Z,-1.30
2022-12-19T21:31:20.307Z,-1.30
2022-12-19T21:33:47.444Z,-1.20
2022-12-19T21:36:16.968Z,-1.20
2022-12-19T21:38:43.869Z,-1.20
2022-12-19T21:41:13.235Z,-1.20
2022-12-19T21:43:40.048Z,-1.20
2022-12-19T21:46:09.025Z,-1.20
2022-12-19T21:48:37.702Z,-1.20
2022-12-19T21:51:04.918Z,-1.20
2022-12-19T21:53:32.042Z,-1.20
2022-12-19T21:56:03.507Z,-1.20
2022-12-19T21:58:31.612Z,-1.20
2022-12-19T22:01:09.347Z,-1.20
2022-12-19T22:03:36.941Z,-1.20
2022-12-19T22:06:04.172Z,-1.20
2022-12-19T22:08:31.257Z,-1.20
2022-12-19T22:10:58.282Z,-1.20
2022-12-19T22:13:25.100Z,-1.20
2022-12-19T22:15:54.384Z,-1.20
2022-12-19T22:18:21.104Z,-1.20
2022-12-19T22:20:47.865Z,-1.20
2022-12-19T22:23:14.620Z,-1.20
2022-12-19T22:25:41.541Z,-1.20
2022-12-19T22:28:08.286Z,-1.20
2022-12-19T22:30:35.768Z,-1.20
2022-12-19T22:33:04.160Z,-1.20
2022-12-19T22:35:33.546Z,-1.20
2022-12-19T22:38:00.304Z,-1.20
2022-12-19T22:40:27.061Z,-1.20
2022-12-19T22:42:53.857Z,-1.10
2022-12-19T22:45:20.600Z,-1.10
2022-12-19T22:47:47.341Z,-1.20
2022-12-19T22:50:15.713Z,-1.10
2022-12-19T22:52:42.438Z,-1.10
2022-12-19T22:55:09.390Z,-1.20
2022-12-19T22:57:36.266Z,-1.20
2022-12-19T23:00:13.603Z,-1.20
2022-12-19T23:02:41.539Z,-1.10
2022-12-19T23:05:08.861Z,-1.10
2022-12-19T23:07:36.980Z,-1.10
2022-12-19T23:10:04.435Z,-1.10
2022-12-19T23:12:31.214Z,-1.10
2022-12-19T23:14:58.161Z,-1.10
2022-12-19T23:17:24.905Z,-1.10
2022-12-19T23:19:51.647Z,-1.10
2022-12-19T23:22:18.448Z,-1.10
2022-12-19T23:24:46.941Z,-1.10
2022-12-19T23:27:13.725Z,-1.10
2022-12-19T23:29:42.586Z,-1.10
2022-12-19T23:32:10.176Z,-1.10
2022-12-19T23:34:37.087Z,-1.10
2022-12-19T23:37:12.355Z,-1.10
2022-12-19T23:39:39.522Z,-1.10
2022-12-19T23:42:07.624Z,-1.10
2022-12-19T23:44:34.607Z,-1.10
2022-12-19T23:47:03.858Z,-1.10
2022-12-19T23:49:31.722Z,-1.10
2022-12-19T23:51:58.533Z,-1.10
2022-12-19T23:54:25.355Z,-1.10
2022-12-19T23:56:52.098Z,-1.10
2022-12-19T23:59:20.231Z,-1.10
